createdAt,value
2017-07-15T00:00:20.154Z,1011.73
2017-07-15T00:01:01.060Z,1011.71
2017-07-15T00:01:41.953Z,1011.71
2017-07-15T00:02:22.840Z,1011.72
2017-07-15T00:03:03.736Z,1011.7
2017-07-15T00:03:44.623Z,1011.69
2017-07-15T00:04:25.515Z,1011.72
2017-07-15T00:05:06.400Z,1011.73
2017-07-15T00:05:47.291Z,1011.73
2017-07-15T00:06:28.172Z,1011.74
2017-07-15T00:07:09.062Z,1011.72
2017-07-15T00:07:49.957Z,1011.7
2017-07-15T00:08:30.840Z,1011.72
2017-07-15T00:09:11.726Z,1011.75
2017-07-15T00:09:52.614Z,1011.68
2017-07-15T00:10:33.504Z,1011.72
2017-07-15T00:11:14.382Z,1011.7
2017-07-15T00:11:55.270Z,1011.7
2017-07-15T00:12:36.158Z,1011.67
2017-07-15T00:13:17.048Z,1011.71
2017-07-15T00:13:57.935Z,1011.67
2017-07-15T00:14:38.828Z,1011.7
2017-07-15T00:15:19.721Z,1011.68
2017-07-15T00:16:00.609Z,1011.72
2017-07-15T00:16:41.502Z,1011.7
2017-07-15T00:17:22.388Z,1011.66
2017-07-15T00:18:03.277Z,1011.69
2017-07-15T00:18:44.168Z,1011.68
2017-07-15T00:19:25.054Z,1011.69
2017-07-15T00:20:05.942Z,1011.69
2017-07-15T00:20:46.842Z,1011.69
2017-07-15T00:21:27.735Z,1011.73
2017-07-15T00:22:08.626Z,1011.7
2017-07-15T00:22:49.520Z,1011.71
2017-07-15T00:23:30.402Z,1011.71
2017-07-15T00:24:11.286Z,1011.7
2017-07-15T00:24:52.170Z,1011.74
2017-07-15T00:25:33.057Z,1011.74
2017-07-15T00:26:13.948Z,1011.72
2017-07-15T00:26:54.835Z,1011.74
2017-07-15T00:27:35.719Z,1011.73
2017-07-15T00:28:16.615Z,1011.74
2017-07-15T00:28:57.494Z,1011.74
2017-07-15T00:29:38.377Z,1011.72
2017-07-15T00:30:19.263Z,1011.73
2017-07-15T00:31:00.147Z,1011.7
2017-07-15T00:31:41.023Z,1011.74
2017-07-15T00:32:21.915Z,1011.72
2017-07-15T00:33:02.795Z,1011.74
2017-07-15T00:33:43.685Z,1011.74
2017-07-15T00:34:24.555Z,1011.72
2017-07-15T00:35:05.446Z,1011.75
2017-07-15T00:35:46.362Z,1011.73
2017-07-15T00:36:27.229Z,1011.71
2017-07-15T00:37:08.123Z,1011.74
2017-07-15T00:37:49.006Z,1011.69
2017-07-15T00:38:29.900Z,1011.73
2017-07-15T00:39:10.784Z,1011.73
2017-07-15T00:39:51.663Z,1011.7
2017-07-15T00:40:32.555Z,1011.71
2017-07-15T00:41:13.439Z,1011.72
2017-07-15T00:41:54.330Z,1011.72
2017-07-15T00:42:35.217Z,1011.71
2017-07-15T00:43:16.111Z,1011.74
2017-07-15T00:43:56.990Z,1011.72
2017-07-15T00:44:37.880Z,1011.74
2017-07-15T00:45:18.764Z,1011.74
2017-07-15T00:45:59.672Z,1011.72
2017-07-15T00:46:40.551Z,1011.76
2017-07-15T00:47:21.453Z,1011.75
2017-07-15T00:48:02.337Z,1011.75
2017-07-15T00:48:43.227Z,1011.79
2017-07-15T00:49:24.154Z,1011.81
2017-07-15T00:50:05.018Z,1011.81
2017-07-15T00:50:45.916Z,1011.81
2017-07-15T00:51:26.838Z,1011.82
2017-07-15T00:52:07.691Z,1011.84
2017-07-15T00:52:48.562Z,1011.85
2017-07-15T00:53:29.448Z,1011.82
2017-07-15T00:54:10.340Z,1011.82
2017-07-15T00:54:51.233Z,1011.84
2017-07-15T00:55:32.129Z,1011.82
2017-07-15T00:56:13.018Z,1011.83
2017-07-15T00:56:53.905Z,1011.88
2017-07-15T00:58:53.691Z,1011.82
2017-07-15T00:59:34.605Z,1011.82
2017-07-15T01:00:15.497Z,1011.79
2017-07-15T01:00:56.387Z,1011.8
2017-07-15T01:01:37.272Z,1011.83
2017-07-15T01:02:18.167Z,1011.86
2017-07-15T01:02:59.076Z,1011.85
2017-07-15T01:03:39.977Z,1011.83
2017-07-15T01:04:20.864Z,1011.84
2017-07-15T01:05:01.752Z,1011.82
2017-07-15T01:05:42.638Z,1011.83
2017-07-15T01:06:23.528Z,1011.83
2017-07-15T01:07:04.414Z,1011.87
2017-07-15T01:07:45.297Z,1011.85
2017-07-15T01:08:26.184Z,1011.89
2017-07-15T01:09:07.073Z,1011.83
2017-07-15T01:09:47.961Z,1011.89
2017-07-15T01:10:28.847Z,1011.84
2017-07-15T01:11:09.736Z,1011.87
2017-07-15T01:11:50.621Z,1011.85
2017-07-15T01:12:31.506Z,1011.86
2017-07-15T01:13:12.393Z,1011.89
2017-07-15T01:13:53.285Z,1011.83
2017-07-15T01:14:34.169Z,1011.84
2017-07-15T01:15:15.061Z,1011.83
2017-07-15T01:15:55.951Z,1011.88
2017-07-15T01:16:36.845Z,1011.85
2017-07-15T01:17:17.738Z,1011.85
2017-07-15T01:17:58.634Z,1011.85
2017-07-15T01:18:39.523Z,1011.86
2017-07-15T01:19:20.417Z,1011.85
2017-07-15T01:20:01.306Z,1011.85
2017-07-15T01:20:42.196Z,1011.83
2017-07-15T01:21:23.084Z,1011.86
2017-07-15T01:22:03.996Z,1011.86
2017-07-15T01:22:44.871Z,1011.87
2017-07-15T01:23:25.760Z,1011.88
2017-07-15T01:24:06.658Z,1011.88
2017-07-15T01:24:47.554Z,1011.9
2017-07-15T01:25:28.474Z,1011.88
2017-07-15T01:26:09.350Z,1011.87
2017-07-15T01:26:50.237Z,1011.87
2017-07-15T01:27:31.102Z,1011.83
2017-07-15T01:28:11.988Z,1011.91
2017-07-15T01:28:52.872Z,1011.87
2017-07-15T01:29:33.756Z,1011.88
2017-07-15T01:30:14.643Z,1011.9
2017-07-15T01:30:55.540Z,1011.87
2017-07-15T01:31:36.437Z,1011.92
2017-07-15T01:32:17.334Z,1011.88
2017-07-15T01:32:58.224Z,1011.91
2017-07-15T01:33:39.117Z,1011.91
2017-07-15T01:34:20.004Z,1011.92
2017-07-15T01:35:00.899Z,1011.93
2017-07-15T01:35:41.792Z,1011.93
2017-07-15T01:36:22.675Z,1011.93
2017-07-15T01:37:03.558Z,1011.9
2017-07-15T01:37:44.438Z,1011.91
2017-07-15T01:38:25.331Z,1011.89
2017-07-15T01:39:06.254Z,1011.91
2017-07-15T01:39:47.120Z,1011.89
2017-07-15T01:40:28.006Z,1011.93
2017-07-15T01:41:08.894Z,1011.96
2017-07-15T01:41:49.786Z,1011.95
2017-07-15T01:42:30.673Z,1011.95
2017-07-15T01:43:11.567Z,1011.95
2017-07-15T01:43:52.471Z,1011.98
2017-07-15T01:44:33.364Z,1011.96
2017-07-15T01:45:14.240Z,1011.99
2017-07-15T01:45:55.194Z,1011.98
2017-07-15T01:46:36.100Z,1012.02
2017-07-15T01:47:16.999Z,1012.02
2017-07-15T01:47:57.884Z,1012.01
2017-07-15T01:48:38.783Z,1012.03
2017-07-15T01:49:19.676Z,1012.06
2017-07-15T01:50:00.579Z,1012.01
2017-07-15T01:50:41.462Z,1012.01
2017-07-15T01:51:22.350Z,1012.04
2017-07-15T01:52:03.258Z,1012.05
2017-07-15T01:52:44.129Z,1012.07
2017-07-15T01:53:25.016Z,1012.05
2017-07-15T01:54:05.900Z,1012.07
2017-07-15T01:54:46.805Z,1012.03
2017-07-15T01:55:27.690Z,1012.03
2017-07-15T01:56:08.581Z,1012.06
2017-07-15T01:56:49.475Z,1012.05
2017-07-15T01:57:30.357Z,1012.07
2017-07-15T01:58:11.242Z,1012.07
2017-07-15T01:58:52.129Z,1012.09
2017-07-15T01:59:33.023Z,1012.1
2017-07-15T02:00:13.916Z,1012.08
2017-07-15T02:00:54.801Z,1012.06
2017-07-15T02:01:35.691Z,1012.09
2017-07-15T02:02:16.596Z,1012.07
2017-07-15T02:02:57.484Z,1012.09
2017-07-15T02:03:38.371Z,1012.08
2017-07-15T02:04:19.263Z,1012.1
2017-07-15T02:05:00.151Z,1012.09
2017-07-15T02:05:41.044Z,1012.06
2017-07-15T02:06:21.917Z,1012.06
2017-07-15T02:07:02.815Z,1012.07
2017-07-15T02:07:43.706Z,1012.07
2017-07-15T02:08:24.589Z,1012.1
2017-07-15T02:09:05.465Z,1012.14
2017-07-15T02:09:46.355Z,1012.1
2017-07-15T02:10:27.235Z,1012.13
2017-07-15T02:11:08.114Z,1012.1
2017-07-15T02:11:49.010Z,1012.12
2017-07-15T02:12:29.877Z,1012.12
2017-07-15T02:13:10.764Z,1012.1
2017-07-15T02:13:51.658Z,1012.11
2017-07-15T02:14:32.538Z,1012.12
2017-07-15T02:15:13.430Z,1012.14
2017-07-15T02:15:54.315Z,1012.15
2017-07-15T02:16:35.203Z,1012.15
2017-07-15T02:17:16.095Z,1012.11
2017-07-15T02:17:56.984Z,1012.14
2017-07-15T02:18:37.869Z,1012.16
2017-07-15T02:19:18.761Z,1012.18
2017-07-15T02:19:59.660Z,1012.15
2017-07-15T02:20:40.544Z,1012.15
2017-07-15T02:21:21.484Z,1012.18
2017-07-15T02:22:02.370Z,1012.2
2017-07-15T02:22:43.260Z,1012.22
2017-07-15T02:23:24.141Z,1012.2
2017-07-15T02:24:05.031Z,1012.23
2017-07-15T02:24:45.912Z,1012.2
2017-07-15T02:25:26.813Z,1012.19
2017-07-15T02:26:07.702Z,1012.19
2017-07-15T02:26:48.592Z,1012.23
2017-07-15T02:27:29.494Z,1012.25
2017-07-15T02:28:10.371Z,1012.25
2017-07-15T02:28:51.263Z,1012.23
2017-07-15T02:29:32.150Z,1012.24
2017-07-15T02:31:41.159Z,1012.25
2017-07-15T02:32:22.054Z,1012.26
2017-07-15T02:33:02.934Z,1012.25
2017-07-15T02:33:43.824Z,1012.26
2017-07-15T02:34:24.713Z,1012.24
2017-07-15T02:35:05.605Z,1012.26
2017-07-15T02:35:46.481Z,1012.23
2017-07-15T02:36:27.364Z,1012.27
2017-07-15T02:37:08.272Z,1012.27
2017-07-15T02:37:49.144Z,1012.27
2017-07-15T02:38:30.032Z,1012.24
2017-07-15T02:39:10.927Z,1012.25
2017-07-15T02:39:51.813Z,1012.32
2017-07-15T02:40:32.700Z,1012.25
2017-07-15T02:41:13.590Z,1012.25
2017-07-15T02:41:54.478Z,1012.25
2017-07-15T02:42:35.390Z,1012.26
2017-07-15T02:43:16.274Z,1012.24
2017-07-15T02:43:57.162Z,1012.27
2017-07-15T02:44:38.052Z,1012.27
2017-07-15T02:45:18.948Z,1012.3
2017-07-15T02:45:59.850Z,1012.26
2017-07-15T02:46:40.734Z,1012.26
2017-07-15T02:47:21.631Z,1012.29
2017-07-15T02:48:02.519Z,1012.29
2017-07-15T02:48:43.405Z,1012.29
2017-07-15T02:49:24.302Z,1012.26
2017-07-15T02:50:05.190Z,1012.27
2017-07-15T02:50:46.073Z,1012.28
2017-07-15T02:51:26.968Z,1012.27
2017-07-15T02:52:07.839Z,1012.34
2017-07-15T02:52:48.722Z,1012.31
2017-07-15T02:53:29.607Z,1012.33
2017-07-15T02:54:10.506Z,1012.31
2017-07-15T02:54:51.404Z,1012.32
2017-07-15T02:55:32.303Z,1012.33
2017-07-15T02:56:13.221Z,1012.33
2017-07-15T02:56:54.115Z,1012.32
2017-07-15T02:57:35.005Z,1012.33
2017-07-15T02:58:15.896Z,1012.37
2017-07-15T02:58:56.782Z,1012.36
2017-07-15T02:59:37.668Z,1012.34
2017-07-15T03:00:18.560Z,1012.37
2017-07-15T03:00:59.449Z,1012.37
2017-07-15T03:01:40.357Z,1012.38
2017-07-15T03:02:21.244Z,1012.38
2017-07-15T03:03:02.141Z,1012.4
2017-07-15T03:03:43.028Z,1012.41
2017-07-15T03:04:23.920Z,1012.37
2017-07-15T03:05:04.802Z,1012.42
2017-07-15T03:05:45.691Z,1012.43
2017-07-15T03:06:26.587Z,1012.4
2017-07-15T03:07:07.477Z,1012.41
2017-07-15T03:07:48.367Z,1012.44
2017-07-15T03:08:29.270Z,1012.42
2017-07-15T03:09:10.186Z,1012.44
2017-07-15T03:09:51.076Z,1012.44
2017-07-15T03:10:31.965Z,1012.42
2017-07-15T03:11:12.847Z,1012.44
2017-07-15T03:11:53.727Z,1012.43
2017-07-15T03:12:34.623Z,1012.43
2017-07-15T03:13:15.509Z,1012.43
2017-07-15T03:13:56.401Z,1012.47
2017-07-15T03:14:37.295Z,1012.47
2017-07-15T03:15:18.192Z,1012.44
2017-07-15T03:15:59.080Z,1012.45
2017-07-15T03:16:39.974Z,1012.45
2017-07-15T03:17:20.856Z,1012.51
2017-07-15T03:18:01.754Z,1012.47
2017-07-15T03:18:42.644Z,1012.52
2017-07-15T03:19:23.535Z,1012.49
2017-07-15T03:20:04.428Z,1012.49
2017-07-15T03:20:45.320Z,1012.49
2017-07-15T03:21:26.203Z,1012.52
2017-07-15T03:22:07.091Z,1012.52
2017-07-15T03:22:48.004Z,1012.52
2017-07-15T03:23:28.877Z,1012.53
2017-07-15T03:24:09.754Z,1012.53
2017-07-15T03:24:50.651Z,1012.56
2017-07-15T03:25:31.535Z,1012.51
2017-07-15T03:26:12.418Z,1012.56
2017-07-15T03:26:53.298Z,1012.55
2017-07-15T03:27:34.186Z,1012.56
2017-07-15T03:28:15.074Z,1012.55
2017-07-15T03:28:55.958Z,1012.58
2017-07-15T03:29:36.852Z,1012.55
2017-07-15T03:30:17.750Z,1012.61
2017-07-15T03:30:58.637Z,1012.6
2017-07-15T03:31:39.518Z,1012.57
2017-07-15T03:32:20.419Z,1012.61
2017-07-15T03:33:01.305Z,1012.58
2017-07-15T03:33:42.198Z,1012.57
2017-07-15T03:34:23.089Z,1012.58
2017-07-15T03:35:03.985Z,1012.58
2017-07-15T03:35:44.873Z,1012.63
2017-07-15T03:36:25.767Z,1012.63
2017-07-15T03:37:06.655Z,1012.63
2017-07-15T03:37:47.525Z,1012.64
2017-07-15T03:38:28.404Z,1012.64
2017-07-15T03:39:09.299Z,1012.67
2017-07-15T03:39:50.184Z,1012.68
2017-07-15T03:40:31.076Z,1012.65
2017-07-15T03:41:11.987Z,1012.7
2017-07-15T03:41:52.878Z,1012.69
2017-07-15T03:42:33.772Z,1012.65
2017-07-15T03:43:14.667Z,1012.69
2017-07-15T03:43:55.561Z,1012.66
2017-07-15T03:44:36.447Z,1012.69
2017-07-15T03:45:17.348Z,1012.69
2017-07-15T03:45:58.226Z,1012.69
2017-07-15T03:46:39.124Z,1012.72
2017-07-15T03:47:19.999Z,1012.7
2017-07-15T03:48:00.892Z,1012.71
2017-07-15T03:48:41.780Z,1012.71
2017-07-15T03:49:22.674Z,1012.71
2017-07-15T03:50:03.563Z,1012.74
2017-07-15T03:50:44.447Z,1012.76
2017-07-15T03:51:25.335Z,1012.74
2017-07-15T03:52:06.225Z,1012.76
2017-07-15T03:52:47.120Z,1012.8
2017-07-15T03:53:28.008Z,1012.83
2017-07-15T03:54:08.904Z,1012.8
2017-07-15T03:54:49.786Z,1012.85
2017-07-15T03:55:30.674Z,1012.83
2017-07-15T03:56:11.601Z,1012.87
2017-07-15T03:56:52.490Z,1012.88
2017-07-15T03:57:33.377Z,1012.87
2017-07-15T03:58:14.262Z,1012.89
2017-07-15T03:58:55.139Z,1012.93
2017-07-15T03:59:36.022Z,1012.95
2017-07-15T04:00:16.904Z,1012.95
2017-07-15T04:00:57.788Z,1012.92
2017-07-15T04:01:38.680Z,1012.93
2017-07-15T04:02:19.642Z,1012.94
2017-07-15T04:03:00.547Z,1012.9
2017-07-15T04:03:41.421Z,1012.95
2017-07-15T04:04:22.314Z,1012.93
2017-07-15T04:05:03.197Z,1012.97
2017-07-15T04:05:44.086Z,1012.96
2017-07-15T04:06:24.978Z,1012.99
2017-07-15T04:07:05.873Z,1013.03
2017-07-15T04:07:46.762Z,1013.01
2017-07-15T04:08:27.647Z,1012.99
2017-07-15T04:09:08.539Z,1013.01
2017-07-15T04:09:49.428Z,1013
2017-07-15T04:10:30.326Z,1012.99
2017-07-15T04:11:11.217Z,1012.99
2017-07-15T04:11:52.114Z,1013
2017-07-15T04:12:32.999Z,1013.03
2017-07-15T04:13:13.881Z,1013.01
2017-07-15T04:13:54.785Z,1013.02
2017-07-15T04:14:35.673Z,1013.01
2017-07-15T04:15:16.552Z,1013.06
2017-07-15T04:15:57.466Z,1013.02
2017-07-15T04:16:38.347Z,1013.08
2017-07-15T04:17:19.270Z,1013.04
2017-07-15T04:18:00.198Z,1013.05
2017-07-15T04:18:41.096Z,1013.07
2017-07-15T04:19:21.988Z,1013.09
2017-07-15T04:20:02.958Z,1013.1
2017-07-15T04:20:43.860Z,1013.1
2017-07-15T04:21:24.747Z,1013.08
2017-07-15T04:22:05.620Z,1013.12
2017-07-15T04:22:46.550Z,1013.15
2017-07-15T04:23:27.438Z,1013.12
2017-07-15T04:24:08.338Z,1013.15
2017-07-15T04:24:49.232Z,1013.18
2017-07-15T04:25:30.109Z,1013.15
2017-07-15T04:26:11.025Z,1013.16
2017-07-15T04:26:51.907Z,1013.18
2017-07-15T04:27:32.787Z,1013.18
2017-07-15T04:28:13.648Z,1013.15
2017-07-15T04:28:54.538Z,1013.17
2017-07-15T04:29:35.430Z,1013.19
2017-07-15T04:30:16.320Z,1013.21
2017-07-15T04:30:57.228Z,1013.21
2017-07-15T04:31:38.114Z,1013.21
2017-07-15T04:32:18.996Z,1013.18
2017-07-15T04:32:59.893Z,1013.17
2017-07-15T04:33:40.803Z,1013.21
2017-07-15T04:34:21.674Z,1013.19
2017-07-15T04:35:02.566Z,1013.22
2017-07-15T04:35:43.460Z,1013.24
2017-07-15T04:36:24.343Z,1013.22
2017-07-15T04:37:05.219Z,1013.22
2017-07-15T04:37:46.167Z,1013.2
2017-07-15T04:38:27.065Z,1013.25
2017-07-15T04:39:07.963Z,1013.22
2017-07-15T04:39:48.845Z,1013.22
2017-07-15T04:40:29.746Z,1013.24
2017-07-15T04:41:10.638Z,1013.25
2017-07-15T04:41:51.516Z,1013.23
2017-07-15T04:42:32.407Z,1013.25
2017-07-15T04:43:13.306Z,1013.24
2017-07-15T04:43:54.193Z,1013.27
2017-07-15T04:44:35.065Z,1013.27
2017-07-15T04:45:15.958Z,1013.29
2017-07-15T04:45:56.852Z,1013.25
2017-07-15T04:46:37.728Z,1013.28
2017-07-15T04:47:18.622Z,1013.28
2017-07-15T04:47:59.516Z,1013.3
2017-07-15T04:48:40.405Z,1013.27
2017-07-15T04:49:21.283Z,1013.31
2017-07-15T04:50:02.175Z,1013.34
2017-07-15T04:50:43.083Z,1013.36
2017-07-15T04:51:23.962Z,1013.37
2017-07-15T04:52:04.859Z,1013.35
2017-07-15T04:52:45.754Z,1013.38
2017-07-15T04:53:26.632Z,1013.36
2017-07-15T04:54:07.649Z,1013.39
2017-07-15T04:54:48.536Z,1013.41
2017-07-15T04:55:29.431Z,1013.41
2017-07-15T04:56:10.324Z,1013.44
2017-07-15T04:56:51.423Z,1013.42
2017-07-15T04:58:24.670Z,1013.44
2017-07-15T04:59:05.552Z,1013.41
2017-07-15T04:59:46.437Z,1013.42
2017-07-15T05:00:27.331Z,1013.44
2017-07-15T05:01:08.216Z,1013.48
2017-07-15T05:01:49.099Z,1013.46
2017-07-15T05:02:29.991Z,1013.43
2017-07-15T05:03:10.888Z,1013.44
2017-07-15T05:03:51.799Z,1013.43
2017-07-15T05:04:32.685Z,1013.42
2017-07-15T05:05:13.581Z,1013.45
2017-07-15T05:05:54.467Z,1013.44
2017-07-15T05:06:35.358Z,1013.44
2017-07-15T05:07:16.244Z,1013.45
2017-07-15T05:07:57.126Z,1013.47
2017-07-15T05:08:38.016Z,1013.47
2017-07-15T05:09:18.918Z,1013.5
2017-07-15T05:09:59.804Z,1013.46
2017-07-15T05:10:40.687Z,1013.49
2017-07-15T05:11:21.599Z,1013.49
2017-07-15T05:12:02.488Z,1013.48
2017-07-15T05:12:43.379Z,1013.53
2017-07-15T05:13:24.268Z,1013.5
2017-07-15T05:14:05.151Z,1013.51
2017-07-15T05:14:46.037Z,1013.5
2017-07-15T05:15:26.926Z,1013.51
2017-07-15T05:16:07.813Z,1013.53
2017-07-15T05:16:48.698Z,1013.55
2017-07-15T05:17:29.585Z,1013.53
2017-07-15T05:18:10.478Z,1013.55
2017-07-15T05:18:51.362Z,1013.53
2017-07-15T05:19:32.273Z,1013.54
2017-07-15T05:20:13.156Z,1013.55
2017-07-15T05:20:54.049Z,1013.55
2017-07-15T05:21:34.939Z,1013.55
2017-07-15T05:22:15.825Z,1013.54
2017-07-15T05:22:57.493Z,1013.56
2017-07-15T05:23:38.429Z,1013.56
2017-07-15T05:24:19.322Z,1013.55
2017-07-15T05:25:00.210Z,1013.59
2017-07-15T05:25:41.093Z,1013.54
2017-07-15T05:26:21.985Z,1013.56
2017-07-15T05:27:02.872Z,1013.56
2017-07-15T05:27:43.762Z,1013.57
2017-07-15T05:28:24.677Z,1013.58
2017-07-15T05:29:05.561Z,1013.57
2017-07-15T05:29:46.453Z,1013.61
2017-07-15T05:30:27.438Z,1013.59
2017-07-15T05:31:08.364Z,1013.59
2017-07-15T05:31:49.257Z,1013.62
2017-07-15T05:32:30.146Z,1013.58
2017-07-15T05:33:11.034Z,1013.61
2017-07-15T05:33:51.904Z,1013.61
2017-07-15T05:34:32.800Z,1013.64
2017-07-15T05:35:13.681Z,1013.62
2017-07-15T05:35:54.559Z,1013.61
2017-07-15T05:36:35.450Z,1013.62
2017-07-15T05:37:16.362Z,1013.6
2017-07-15T05:37:57.253Z,1013.6
2017-07-15T05:38:38.158Z,1013.64
2017-07-15T05:39:19.044Z,1013.65
2017-07-15T05:39:59.923Z,1013.64
2017-07-15T05:40:40.815Z,1013.64
2017-07-15T05:41:21.736Z,1013.62
2017-07-15T05:42:02.579Z,1013.64
2017-07-15T05:42:43.463Z,1013.62
2017-07-15T05:43:24.368Z,1013.63
2017-07-15T05:44:05.248Z,1013.67
2017-07-15T05:44:46.131Z,1013.64
2017-07-15T05:45:27.023Z,1013.66
2017-07-15T05:46:07.904Z,1013.67
2017-07-15T05:46:48.778Z,1013.69
2017-07-15T05:47:29.668Z,1013.67
2017-07-15T05:48:10.568Z,1013.69
2017-07-15T05:48:51.450Z,1013.72
2017-07-15T05:49:32.334Z,1013.67
2017-07-15T05:50:13.233Z,1013.7
2017-07-15T05:50:54.123Z,1013.75
2017-07-15T05:51:35.015Z,1013.78
2017-07-15T05:52:15.913Z,1013.76
2017-07-15T05:52:56.803Z,1013.74
2017-07-15T05:53:37.701Z,1013.74
2017-07-15T05:54:18.598Z,1013.73
2017-07-15T05:54:59.492Z,1013.76
2017-07-15T05:55:40.367Z,1013.79
2017-07-15T05:56:21.268Z,1013.77
2017-07-15T05:57:02.153Z,1013.79
2017-07-15T05:57:43.045Z,1013.77
2017-07-15T05:58:23.931Z,1013.82
2017-07-15T05:59:04.834Z,1013.77
2017-07-15T05:59:45.720Z,1013.81
2017-07-15T06:00:26.625Z,1013.81
2017-07-15T06:01:07.509Z,1013.85
2017-07-15T06:01:48.405Z,1013.88
2017-07-15T06:02:29.300Z,1013.85
2017-07-15T06:03:10.195Z,1013.88
2017-07-15T06:03:51.080Z,1013.89
2017-07-15T06:04:31.964Z,1013.93
2017-07-15T06:05:12.853Z,1013.92
2017-07-15T06:05:53.721Z,1013.92
2017-07-15T06:06:34.606Z,1013.93
2017-07-15T06:07:15.498Z,1013.91
2017-07-15T06:07:56.412Z,1013.93
2017-07-15T06:08:37.300Z,1013.98
2017-07-15T06:09:18.190Z,1014
2017-07-15T06:09:59.078Z,1014.01
2017-07-15T06:10:39.962Z,1014
2017-07-15T06:11:20.853Z,1013.99
2017-07-15T06:12:01.745Z,1014.01
2017-07-15T06:12:42.638Z,1014.05
2017-07-15T06:13:23.527Z,1014.04
2017-07-15T06:14:04.443Z,1014.03
2017-07-15T06:14:45.347Z,1014.09
2017-07-15T06:15:26.234Z,1014.07
2017-07-15T06:16:07.119Z,1014.06
2017-07-15T06:16:48.013Z,1014.1
2017-07-15T06:17:28.935Z,1014.1
2017-07-15T06:18:09.868Z,1014.11
2017-07-15T06:18:50.756Z,1014.12
2017-07-15T06:19:31.657Z,1014.12
2017-07-15T06:20:12.550Z,1014.09
2017-07-15T06:20:53.455Z,1014.09
2017-07-15T06:21:34.336Z,1014.13
2017-07-15T06:22:15.220Z,1014.09
2017-07-15T06:22:56.123Z,1014.11
2017-07-15T06:23:37.012Z,1014.12
2017-07-15T06:24:17.894Z,1014.13
2017-07-15T06:24:58.786Z,1014.15
2017-07-15T06:25:39.691Z,1014.14
2017-07-15T06:26:20.580Z,1014.19
2017-07-15T06:27:01.474Z,1014.18
2017-07-15T06:27:42.387Z,1014.14
2017-07-15T06:28:23.259Z,1014.17
2017-07-15T06:29:04.151Z,1014.23
2017-07-15T06:29:45.049Z,1014.22
2017-07-15T06:30:25.932Z,1014.26
2017-07-15T06:31:06.832Z,1014.23
2017-07-15T06:31:47.736Z,1014.24
2017-07-15T06:32:28.628Z,1014.23
2017-07-15T06:33:09.525Z,1014.19
2017-07-15T06:33:50.411Z,1014.22
2017-07-15T06:34:31.303Z,1014.2
2017-07-15T06:35:12.210Z,1014.22
2017-07-15T06:35:53.105Z,1014.2
2017-07-15T06:36:34.003Z,1014.24
2017-07-15T06:37:14.907Z,1014.19
2017-07-15T06:37:55.800Z,1014.24
2017-07-15T06:38:36.704Z,1014.22
2017-07-15T06:39:17.595Z,1014.2
2017-07-15T06:39:58.498Z,1014.22
2017-07-15T06:40:39.400Z,1014.24
2017-07-15T06:41:20.298Z,1014.21
2017-07-15T06:42:01.205Z,1014.25
2017-07-15T06:42:42.104Z,1014.24
2017-07-15T06:43:23.009Z,1014.24
2017-07-15T06:44:03.895Z,1014.26
2017-07-15T06:44:44.804Z,1014.31
2017-07-15T06:45:25.701Z,1014.26
2017-07-15T06:46:06.593Z,1014.29
2017-07-15T06:46:47.505Z,1014.31
2017-07-15T06:47:28.403Z,1014.34
2017-07-15T06:48:09.301Z,1014.31
2017-07-15T06:48:50.203Z,1014.35
2017-07-15T06:49:31.180Z,1014.37
2017-07-15T06:50:12.081Z,1014.42
2017-07-15T06:50:52.971Z,1014.36
2017-07-15T06:51:33.867Z,1014.35
2017-07-15T06:52:14.779Z,1014.4
2017-07-15T06:52:55.660Z,1014.4
2017-07-15T06:53:36.583Z,1014.38
2017-07-15T06:54:17.450Z,1014.42
2017-07-15T06:54:58.321Z,1014.42
2017-07-15T06:55:39.194Z,1014.43
2017-07-15T06:56:20.082Z,1014.46
2017-07-15T06:57:00.986Z,1014.42
2017-07-15T06:57:41.871Z,1014.43
2017-07-15T06:58:22.751Z,1014.45
2017-07-15T06:59:03.654Z,1014.45
2017-07-15T06:59:44.549Z,1014.49
2017-07-15T07:00:25.445Z,1014.46
2017-07-15T07:01:06.342Z,1014.5
2017-07-15T07:01:47.226Z,1014.51
2017-07-15T07:02:28.141Z,1014.5
2017-07-15T07:03:09.026Z,1014.53
2017-07-15T07:03:49.925Z,1014.5
2017-07-15T07:04:30.809Z,1014.52
2017-07-15T07:05:11.684Z,1014.5
2017-07-15T07:05:52.570Z,1014.5
2017-07-15T07:06:33.459Z,1014.53
2017-07-15T07:07:14.354Z,1014.5
2017-07-15T07:07:55.243Z,1014.53
2017-07-15T07:08:36.127Z,1014.55
2017-07-15T07:10:46.149Z,1014.57
2017-07-15T07:11:27.047Z,1014.58
2017-07-15T07:12:07.941Z,1014.57
2017-07-15T07:12:48.823Z,1014.54
2017-07-15T07:13:29.695Z,1014.53
2017-07-15T07:14:10.608Z,1014.53
2017-07-15T07:14:51.481Z,1014.56
2017-07-15T07:15:32.409Z,1014.51
2017-07-15T07:16:13.292Z,1014.53
2017-07-15T07:16:54.184Z,1014.57
2017-07-15T07:17:35.068Z,1014.55
2017-07-15T07:18:15.974Z,1014.56
2017-07-15T07:18:56.868Z,1014.58
2017-07-15T07:19:37.766Z,1014.61
2017-07-15T07:20:18.681Z,1014.58
2017-07-15T07:20:59.565Z,1014.62
2017-07-15T07:21:40.480Z,1014.63
2017-07-15T07:22:21.376Z,1014.65
2017-07-15T07:23:02.266Z,1014.59
2017-07-15T07:23:43.188Z,1014.57
2017-07-15T07:24:24.125Z,1014.61
2017-07-15T07:25:05.047Z,1014.59
2017-07-15T07:25:45.946Z,1014.62
2017-07-15T07:26:26.830Z,1014.6
2017-07-15T07:27:07.722Z,1014.61
2017-07-15T07:27:48.630Z,1014.62
2017-07-15T07:28:29.538Z,1014.65
2017-07-15T07:29:10.439Z,1014.64
2017-07-15T07:29:51.320Z,1014.63
2017-07-15T07:31:24.648Z,1014.65
2017-07-15T07:32:05.547Z,1014.69
2017-07-15T07:32:46.440Z,1014.69
2017-07-15T07:33:27.336Z,1014.69
2017-07-15T07:34:08.234Z,1014.71
2017-07-15T07:34:49.144Z,1014.72
2017-07-15T07:35:30.038Z,1014.74
2017-07-15T07:36:10.920Z,1014.75
2017-07-15T07:36:51.794Z,1014.72
2017-07-15T07:37:32.689Z,1014.74
2017-07-15T07:38:13.572Z,1014.72
2017-07-15T07:38:54.474Z,1014.73
2017-07-15T07:39:35.361Z,1014.77
2017-07-15T07:40:16.300Z,1014.74
2017-07-15T07:40:57.197Z,1014.78
2017-07-15T07:41:38.086Z,1014.78
2017-07-15T07:42:18.983Z,1014.75
2017-07-15T07:42:59.871Z,1014.78
2017-07-15T07:43:40.767Z,1014.79
2017-07-15T07:44:21.670Z,1014.81
2017-07-15T07:45:02.545Z,1014.79
2017-07-15T07:45:43.449Z,1014.78
2017-07-15T07:46:24.349Z,1014.79
2017-07-15T07:47:05.227Z,1014.79
2017-07-15T07:47:46.105Z,1014.79
2017-07-15T07:48:27.008Z,1014.84
2017-07-15T07:49:07.901Z,1014.81
2017-07-15T07:49:48.781Z,1014.82
2017-07-15T07:50:29.691Z,1014.81
2017-07-15T07:51:10.572Z,1014.83
2017-07-15T07:51:51.454Z,1014.84
2017-07-15T07:52:32.360Z,1014.84
2017-07-15T07:53:13.265Z,1014.85
2017-07-15T07:53:54.166Z,1014.85
2017-07-15T07:54:35.055Z,1014.84
2017-07-15T07:55:15.933Z,1014.84
2017-07-15T07:55:56.815Z,1014.85
2017-07-15T07:56:37.693Z,1014.85
2017-07-15T07:57:18.580Z,1014.84
2017-07-15T07:57:59.470Z,1014.86
2017-07-15T07:58:40.379Z,1014.9
2017-07-15T07:59:21.268Z,1014.88
2017-07-15T08:00:02.167Z,1014.9
2017-07-15T08:00:43.074Z,1014.89
2017-07-15T08:01:23.965Z,1014.91
2017-07-15T08:02:04.879Z,1014.89
2017-07-15T08:02:45.777Z,1014.92
2017-07-15T08:03:26.672Z,1014.91
2017-07-15T08:04:07.581Z,1014.93
2017-07-15T08:04:48.487Z,1014.97
2017-07-15T08:05:29.404Z,1014.96
2017-07-15T08:06:10.301Z,1015
2017-07-15T08:06:51.217Z,1015
2017-07-15T08:07:32.123Z,1014.98
2017-07-15T08:08:13.026Z,1014.97
2017-07-15T08:08:53.913Z,1014.99
2017-07-15T08:09:34.814Z,1014.97
2017-07-15T08:10:15.708Z,1015.02
2017-07-15T08:10:56.612Z,1015.01
2017-07-15T08:11:37.521Z,1015.04
2017-07-15T08:12:18.416Z,1014.99
2017-07-15T08:12:59.326Z,1015.02
2017-07-15T08:13:40.217Z,1015.02
2017-07-15T08:14:21.123Z,1015.02
2017-07-15T08:15:02.030Z,1015.02
2017-07-15T08:15:42.945Z,1015
2017-07-15T08:16:23.861Z,1015.03
2017-07-15T08:17:04.778Z,1015.05
2017-07-15T08:17:45.695Z,1015
2017-07-15T08:18:26.597Z,1015.05
2017-07-15T08:19:07.485Z,1015.02
2017-07-15T08:19:48.383Z,1015.04
2017-07-15T08:20:29.296Z,1015.04
2017-07-15T08:21:10.203Z,1015.03
2017-07-15T08:21:51.105Z,1015.04
2017-07-15T08:22:31.989Z,1015.06